sensor_id;sensor_type;location;lat;lon;timestamp;temperature;humidity
32476;DHT22;18929;48.008;10.882;2022-08-21T00:00:06;18.60;99.90
32476;DHT22;18929;48.008;10.882;2022-08-21T00:02:35;18.80;99.90
32476;DHT22;18929;48.008;10.882;2022-08-21T00:05:04;18.90;99.90
32476;DHT22;18929;48.008;10.882;2022-08-21T00:07:31;19.10;99.90
32476;DHT22;18929;48.008;10.882;2022-08-21T00:09:58;19.00;99.90
32476;DHT22;18929;48.008;10.882;2022-08-21T00:12:25;19.00;99.90
32476;DHT22;18929;48.008;10.882;2022-08-21T00:14:53;18.90;99.90
32476;DHT22;18929;48.008;10.882;2022-08-21T00:17:20;19.00;99.90
32476;DHT22;18929;48.008;10.882;2022-08-21T00:19:47;18.80;99.90
32476;DHT22;18929;48.008;10.882;2022-08-21T00:22:15;18.80;99.90
32476;DHT22;18929;48.008;10.882;2022-08-21T00:24:42;18.70;99.90
32476;DHT22;18929;48.008;10.882;2022-08-21T00:27:09;19.00;99.90
32476;DHT22;18929;48.008;10.882;2022-08-21T00:29:36;18.90;99.90
32476;DHT22;18929;48.008;10.882;2022-08-21T00:32:04;18.80;99.90
32476;DHT22;18929;48.008;10.882;2022-08-21T00:34:31;19.10;99.90
32476;DHT22;18929;48.008;10.882;2022-08-21T00:36:58;18.50;99.90
32476;DHT22;18929;48.008;10.882;2022-08-21T00:39:27;19.00;99.90
32476;DHT22;18929;48.008;10.882;2022-08-21T00:41:54;19.10;99.90
32476;DHT22;18929;48.008;10.882;2022-08-21T00:44:21;18.20;99.90
32476;DHT22;18929;48.008;10.882;2022-08-21T00:46:48;18.70;99.90
32476;DHT22;18929;48.008;10.882;2022-08-21T00:49:15;18.20;99.90
32476;DHT22;18929;48.008;10.882;2022-08-21T00:51:48;18.70;99.90
32476;DHT22;18929;48.008;10.882;2022-08-21T00:54:16;18.50;99.90
32476;DHT22;18929;48.008;10.882;2022-08-21T00:56:46;18.90;99.90
32476;DHT22;18929;48.008;10.882;2022-08-21T00:59:15;18.90;99.90
32476;DHT22;18929;48.008;10.882;2022-08-21T01:01:43;19.00;99.90
32476;DHT22;18929;48.008;10.882;2022-08-21T01:04:11;19.00;99.90
32476;DHT22;18929;48.008;10.882;2022-08-21T01:06:38;19.20;99.90
32476;DHT22;18929;48.008;10.882;2022-08-21T01:09:05;18.70;99.90
32476;DHT22;18929;48.008;10.882;2022-08-21T01:11:32;18.80;99.90
32476;DHT22;18929;48.008;10.882;2022-08-21T01:14:01;18.90;99.90
32476;DHT22;18929;48.008;10.882;2022-08-21T01:16:28;18.70;99.90
32476;DHT22;18929;48.008;10.882;2022-08-21T01:18:55;18.70;99.90
32476;DHT22;18929;48.008;10.882;2022-08-21T01:21:26;18.60;99.90
32476;DHT22;18929;48.008;10.882;2022-08-21T01:23:54;18.40;99.90
32476;DHT22;18929;48.008;10.882;2022-08-21T01:26:26;18.70;99.90
32476;DHT22;18929;48.008;10.882;2022-08-21T01:28:58;18.40;99.90
32476;DHT22;18929;48.008;10.882;2022-08-21T01:31:27;18.30;99.90
32476;DHT22;18929;48.008;10.882;2022-08-21T01:33:57;18.40;99.90
32476;DHT22;18929;48.008;10.882;2022-08-21T01:36:26;18.20;99.90
32476;DHT22;18929;48.008;10.882;2022-08-21T01:38:53;18.60;99.90
32476;DHT22;18929;48.008;10.882;2022-08-21T01:41:20;17.90;99.90
32476;DHT22;18929;48.008;10.882;2022-08-21T01:43:47;17.50;99.90
32476;DHT22;18929;48.008;10.882;2022-08-21T01:46:15;17.20;99.90
32476;DHT22;18929;48.008;10.882;2022-08-21T01:48:43;17.90;99.90
32476;DHT22;18929;48.008;10.882;2022-08-21T01:51:11;17.50;99.90
32476;DHT22;18929;48.008;10.882;2022-08-21T01:53:40;17.30;99.90
32476;DHT22;18929;48.008;10.882;2022-08-21T01:56:10;17.40;99.90
32476;DHT22;18929;48.008;10.882;2022-08-21T01:58:37;17.10;99.90
32476;DHT22;18929;48.008;10.882;2022-08-21T02:01:04;17.20;99.90
32476;DHT22;18929;48.008;10.882;2022-08-21T02:03:31;17.20;99.90
32476;DHT22;18929;48.008;10.882;2022-08-21T02:05:58;16.90;99.90
32476;DHT22;18929;48.008;10.882;2022-08-21T02:08:26;17.60;99.90
32476;DHT22;18929;48.008;10.882;2022-08-21T02:10:55;18.20;99.90
32476;DHT22;18929;48.008;10.882;2022-08-21T02:13:22;18.40;99.90
32476;DHT22;18929;48.008;10.882;2022-08-21T02:15:49;18.60;99.90
32476;DHT22;18929;48.008;10.882;2022-08-21T02:18:16;18.60;99.90
32476;DHT22;18929;48.008;10.882;2022-08-21T02:20:47;18.70;99.90
32476;DHT22;18929;48.008;10.882;2022-08-21T02:23:14;18.70;99.90
32476;DHT22;18929;48.008;10.882;2022-08-21T02:25:42;18.70;99.90
32476;DHT22;18929;48.008;10.882;2022-08-21T02:28:14;18.70;99.90
32476;DHT22;18929;48.008;10.882;2022-08-21T02:30:43;18.70;99.90
32476;DHT22;18929;48.008;10.882;2022-08-21T02:33:11;18.50;99.90
32476;DHT22;18929;48.008;10.882;2022-08-21T02:35:39;17.90;99.90
32476;DHT22;18929;48.008;10.882;2022-08-21T02:38:09;18.40;99.90
32476;DHT22;18929;48.008;10.882;2022-08-21T02:40:39;18.50;99.90
32476;DHT22;18929;48.008;10.882;2022-08-21T02:43:07;18.50;99.90
32476;DHT22;18929;48.008;10.882;2022-08-21T02:45:36;18.40;99.90
32476;DHT22;18929;48.008;10.882;2022-08-21T02:48:05;18.50;99.90
32476;DHT22;18929;48.008;10.882;2022-08-21T02:50:34;18.20;99.90
32476;DHT22;18929;48.008;10.882;2022-08-21T02:53:01;18.30;99.90
32476;DHT22;18929;48.008;10.882;2022-08-21T02:55:31;18.40;99.90
32476;DHT22;18929;48.008;10.882;2022-08-21T02:57:58;18.40;99.90
32476;DHT22;18929;48.008;10.882;2022-08-21T03:00:29;18.00;99.90
32476;DHT22;18929;48.008;10.882;2022-08-21T03:02:58;18.30;99.90
32476;DHT22;18929;48.008;10.882;2022-08-21T03:05:27;18.30;99.90
32476;DHT22;18929;48.008;10.882;2022-08-21T03:07:55;18.30;99.90
32476;DHT22;18929;48.008;10.882;2022-08-21T03:10:22;18.30;99.90
32476;DHT22;18929;48.008;10.882;2022-08-21T03:12:50;18.00;99.90
32476;DHT22;18929;48.008;10.882;2022-08-21T03:15:20;17.60;99.90
32476;DHT22;18929;48.008;10.882;2022-08-21T03:17:47;17.50;99.90
32476;DHT22;18929;48.008;10.882;2022-08-21T03:20:18;17.80;99.90
32476;DHT22;18929;48.008;10.882;2022-08-21T03:22:45;18.10;99.90
32476;DHT22;18929;48.008;10.882;2022-08-21T03:25:12;17.70;99.90
32476;DHT22;18929;48.008;10.882;2022-08-21T03:27:40;17.50;99.90
32476;DHT22;18929;48.008;10.882;2022-08-21T03:30:08;18.00;99.90
32476;DHT22;18929;48.008;10.882;2022-08-21T03:32:35;18.10;99.90
32476;DHT22;18929;48.008;10.882;2022-08-21T03:35:03;18.20;99.90
32476;DHT22;18929;48.008;10.882;2022-08-21T03:37:32;17.60;99.90
32476;DHT22;18929;48.008;10.882;2022-08-21T03:39:59;18.00;99.90
32476;DHT22;18929;48.008;10.882;2022-08-21T03:42:26;18.00;99.90
32476;DHT22;18929;48.008;10.882;2022-08-21T03:44:53;17.80;99.90
32476;DHT22;18929;48.008;10.882;2022-08-21T03:47:20;17.70;99.90
32476;DHT22;18929;48.008;10.882;2022-08-21T03:49:48;18.00;99.90
32476;DHT22;18929;48.008;10.882;2022-08-21T03:52:15;18.10;99.90
32476;DHT22;18929;48.008;10.882;2022-08-21T03:54:44;18.00;99.90
32476;DHT22;18929;48.008;10.882;2022-08-21T03:57:11;17.40;99.90
32476;DHT22;18929;48.008;10.882;2022-08-21T03:59:38;17.20;99.90
32476;DHT22;18929;48.008;10.882;2022-08-21T04:02:06;17.20;99.90
32476;DHT22;18929;48.008;10.882;2022-08-21T04:04:34;17.20;99.90
32476;DHT22;18929;48.008;10.882;2022-08-21T04:07:01;17.20;99.90
32476;DHT22;18929;48.008;10.882;2022-08-21T04:09:29;17.30;99.90
32476;DHT22;18929;48.008;10.882;2022-08-21T04:11:58;17.70;99.90
32476;DHT22;18929;48.008;10.882;2022-08-21T04:14:26;17.80;99.90
32476;DHT22;18929;48.008;10.882;2022-08-21T04:16:53;17.90;99.90
32476;DHT22;18929;48.008;10.882;2022-08-21T04:19:20;17.40;99.90
32476;DHT22;18929;48.008;10.882;2022-08-21T04:21:47;17.70;99.90
32476;DHT22;18929;48.008;10.882;2022-08-21T04:24:15;17.50;99.90
32476;DHT22;18929;48.008;10.882;2022-08-21T04:26:42;17.60;99.90
32476;DHT22;18929;48.008;10.882;2022-08-21T04:29:10;17.70;99.90
32476;DHT22;18929;48.008;10.882;2022-08-21T04:31:37;17.80;99.90
32476;DHT22;18929;48.008;10.882;2022-08-21T04:34:05;17.80;99.90
32476;DHT22;18929;48.008;10.882;2022-08-21T04:36:32;17.70;99.90
32476;DHT22;18929;48.008;10.882;2022-08-21T04:38:59;17.60;99.90
32476;DHT22;18929;48.008;10.882;2022-08-21T04:41:26;17.50;99.90
32476;DHT22;18929;48.008;10.882;2022-08-21T04:43:53;17.70;99.90
32476;DHT22;18929;48.008;10.882;2022-08-21T04:46:23;17.80;99.90
32476;DHT22;18929;48.008;10.882;2022-08-21T04:48:50;17.80;99.90
32476;DHT22;18929;48.008;10.882;2022-08-21T04:51:21;17.80;99.90
32476;DHT22;18929;48.008;10.882;2022-08-21T04:53:52;17.80;99.90
32476;DHT22;18929;48.008;10.882;2022-08-21T04:56:23;17.50;99.90
32476;DHT22;18929;48.008;10.882;2022-08-21T04:58:51;17.70;99.90
32476;DHT22;18929;48.008;10.882;2022-08-21T05:01:20;17.70;99.90
32476;DHT22;18929;48.008;10.882;2022-08-21T05:03:51;17.70;99.90
32476;DHT22;18929;48.008;10.882;2022-08-21T05:06:19;17.70;99.90
32476;DHT22;18929;48.008;10.882;2022-08-21T05:08:49;17.70;99.90
32476;DHT22;18929;48.008;10.882;2022-08-21T05:11:18;17.50;99.90
32476;DHT22;18929;48.008;10.882;2022-08-21T05:13:45;17.60;99.90
32476;DHT22;18929;48.008;10.882;2022-08-21T05:16:12;17.50;99.90
32476;DHT22;18929;48.008;10.882;2022-08-21T05:18:39;17.70;99.90
32476;DHT22;18929;48.008;10.882;2022-08-21T05:21:08;17.20;99.90
32476;DHT22;18929;48.008;10.882;2022-08-21T05:23:35;17.40;99.90
32476;DHT22;18929;48.008;10.882;2022-08-21T05:26:03;17.10;99.90
32476;DHT22;18929;48.008;10.882;2022-08-21T05:28:30;17.50;99.90
32476;DHT22;18929;48.008;10.882;2022-08-21T05:30:58;17.00;99.90
32476;DHT22;18929;48.008;10.882;2022-08-21T05:33:25;16.70;99.90
32476;DHT22;18929;48.008;10.882;2022-08-21T05:35:53;16.30;99.90
32476;DHT22;18929;48.008;10.882;2022-08-21T05:38:23;16.10;99.90
32476;DHT22;18929;48.008;10.882;2022-08-21T05:40:50;16.70;99.90
32476;DHT22;18929;48.008;10.882;2022-08-21T05:43:17;17.20;99.90
32476;DHT22;18929;48.008;10.882;2022-08-21T05:45:44;16.70;99.90
32476;DHT22;18929;48.008;10.882;2022-08-21T05:48:13;16.40;99.90
32476;DHT22;18929;48.008;10.882;2022-08-21T05:50:41;16.90;99.90
32476;DHT22;18929;48.008;10.882;2022-08-21T05:53:09;17.10;99.90
32476;DHT22;18929;48.008;10.882;2022-08-21T05:55:38;17.20;99.90
32476;DHT22;18929;48.008;10.882;2022-08-21T05:58:05;16.70;99.90
32476;DHT22;18929;48.008;10.882;2022-08-21T06:00:32;16.40;99.90
32476;DHT22;18929;48.008;10.882;2022-08-21T06:02:59;16.80;99.90
32476;DHT22;18929;48.008;10.882;2022-08-21T06:05:26;17.20;99.90
32476;DHT22;18929;48.008;10.882;2022-08-21T06:07:53;17.90;99.90
32476;DHT22;18929;48.008;10.882;2022-08-21T06:10:20;18.00;99.90
32476;DHT22;18929;48.008;10.882;2022-08-21T06:12:54;17.40;99.90
32476;DHT22;18929;48.008;10.882;2022-08-21T06:15:21;16.70;99.90
32476;DHT22;18929;48.008;10.882;2022-08-21T06:17:48;16.50;99.90
32476;DHT22;18929;48.008;10.882;2022-08-21T06:20:15;16.30;99.90
32476;DHT22;18929;48.008;10.882;2022-08-21T06:22:42;16.50;99.90
32476;DHT22;18929;48.008;10.882;2022-08-21T06:25:09;16.40;99.90
32476;DHT22;18929;48.008;10.882;2022-08-21T06:27:36;16.50;99.90
32476;DHT22;18929;48.008;10.882;2022-08-21T06:30:06;16.70;99.90
32476;DHT22;18929;48.008;10.882;2022-08-21T06:32:34;16.70;99.90
32476;DHT22;18929;48.008;10.882;2022-08-21T06:35:02;17.10;99.90
32476;DHT22;18929;48.008;10.882;2022-08-21T06:37:29;17.20;99.90
32476;DHT22;18929;48.008;10.882;2022-08-21T06:39:56;17.20;99.90
32476;DHT22;18929;48.008;10.882;2022-08-21T06:42:23;17.10;99.90
32476;DHT22;18929;48.008;10.882;2022-08-21T06:44:52;17.10;99.90
32476;DHT22;18929;48.008;10.882;2022-08-21T06:47:21;17.10;99.90
32476;DHT22;18929;48.008;10.882;2022-08-21T06:49:48;17.30;99.90
32476;DHT22;18929;48.008;10.882;2022-08-21T06:52:15;17.60;99.90
32476;DHT22;18929;48.008;10.882;2022-08-21T06:54:42;17.80;99.90
32476;DHT22;18929;48.008;10.882;2022-08-21T06:57:09;17.80;99.90
32476;DHT22;18929;48.008;10.882;2022-08-21T06:59:36;17.80;99.90
32476;DHT22;18929;48.008;10.882;2022-08-21T07:02:03;18.00;99.90
32476;DHT22;18929;48.008;10.882;2022-08-21T07:04:32;18.00;99.90
32476;DHT22;18929;48.008;10.882;2022-08-21T07:06:59;17.70;99.90
32476;DHT22;18929;48.008;10.882;2022-08-21T07:09:26;17.80;99.90
32476;DHT22;18929;48.008;10.882;2022-08-21T07:11:56;17.50;99.90
32476;DHT22;18929;48.008;10.882;2022-08-21T07:14:25;17.80;99.90
32476;DHT22;18929;48.008;10.882;2022-08-21T07:16:52;18.10;99.90
32476;DHT22;18929;48.008;10.882;2022-08-21T07:19:19;18.20;99.90
32476;DHT22;18929;48.008;10.882;2022-08-21T07:21:47;18.00;99.90
32476;DHT22;18929;48.008;10.882;2022-08-21T07:24:14;17.80;99.90
32476;DHT22;18929;48.008;10.882;2022-08-21T07:26:41;17.40;99.90
32476;DHT22;18929;48.008;10.882;2022-08-21T07:29:08;18.00;99.90
32476;DHT22;18929;48.008;10.882;2022-08-21T07:31:35;18.20;99.90
32476;DHT22;18929;48.008;10.882;2022-08-21T07:34:02;17.90;99.90
32476;DHT22;18929;48.008;10.882;2022-08-21T07:36:29;18.20;99.90
32476;DHT22;18929;48.008;10.882;2022-08-21T07:38:57;17.80;99.90
32476;DHT22;18929;48.008;10.882;2022-08-21T07:41:26;17.90;99.90
32476;DHT22;18929;48.008;10.882;2022-08-21T07:43:54;17.70;99.90
32476;DHT22;18929;48.008;10.882;2022-08-21T07:46:23;17.60;99.90
32476;DHT22;18929;48.008;10.882;2022-08-21T07:48:51;18.10;99.90
32476;DHT22;18929;48.008;10.882;2022-08-21T07:51:20;18.00;99.90
32476;DHT22;18929;48.008;10.882;2022-08-21T07:53:49;17.90;99.90
32476;DHT22;18929;48.008;10.882;2022-08-21T07:56:19;18.20;99.90
32476;DHT22;18929;48.008;10.882;2022-08-21T07:58:46;17.70;99.90
32476;DHT22;18929;48.008;10.882;2022-08-21T08:01:13;17.50;99.90
32476;DHT22;18929;48.008;10.882;2022-08-21T08:03:41;17.70;99.90
32476;DHT22;18929;48.008;10.882;2022-08-21T08:06:08;18.30;99.90
32476;DHT22;18929;48.008;10.882;2022-08-21T08:08:37;18.80;99.90
32476;DHT22;18929;48.008;10.882;2022-08-21T08:11:05;18.30;99.90
32476;DHT22;18929;48.008;10.882;2022-08-21T08:13:38;18.10;99.90
32476;DHT22;18929;48.008;10.882;2022-08-21T08:16:06;18.50;99.90
32476;DHT22;18929;48.008;10.882;2022-08-21T08:18:33;19.10;99.90
32476;DHT22;18929;48.008;10.882;2022-08-21T08:21:00;19.00;99.90
32476;DHT22;18929;48.008;10.882;2022-08-21T08:23:27;18.60;99.90
32476;DHT22;18929;48.008;10.882;2022-08-21T08:25:56;18.90;99.90
32476;DHT22;18929;48.008;10.882;2022-08-21T08:28:23;19.10;99.90
32476;DHT22;18929;48.008;10.882;2022-08-21T08:30:51;19.20;99.90
32476;DHT22;18929;48.008;10.882;2022-08-21T08:33:19;18.90;99.90
32476;DHT22;18929;48.008;10.882;2022-08-21T08:35:48;19.40;99.90
32476;DHT22;18929;48.008;10.882;2022-08-21T08:38:17;18.70;99.90
32476;DHT22;18929;48.008;10.882;2022-08-21T08:40:50;18.50;99.90
32476;DHT22;18929;48.008;10.882;2022-08-21T08:43:19;18.30;99.90
32476;DHT22;18929;48.008;10.882;2022-08-21T08:45:51;19.20;99.90
32476;DHT22;18929;48.008;10.882;2022-08-21T08:48:33;18.60;99.90
32476;DHT22;18929;48.008;10.882;2022-08-21T08:51:03;18.70;99.90
32476;DHT22;18929;48.008;10.882;2022-08-21T08:53:36;19.10;99.90
32476;DHT22;18929;48.008;10.882;2022-08-21T08:56:05;18.60;99.90
32476;DHT22;18929;48.008;10.882;2022-08-21T08:58:36;18.30;99.90
32476;DHT22;18929;48.008;10.882;2022-08-21T09:01:10;18.80;99.90
32476;DHT22;18929;48.008;10.882;2022-08-21T09:03:39;18.70;99.90
32476;DHT22;18929;48.008;10.882;2022-08-21T09:06:11;19.60;99.90
32476;DHT22;18929;48.008;10.882;2022-08-21T09:08:50;20.10;99.90
32476;DHT22;18929;48.008;10.882;2022-08-21T09:11:25;19.40;99.90
32476;DHT22;18929;48.008;10.882;2022-08-21T09:14:01;19.30;99.90
32476;DHT22;18929;48.008;10.882;2022-08-21T09:16:38;18.70;99.90
32476;DHT22;18929;48.008;10.882;2022-08-21T09:19:11;19.30;99.90
32476;DHT22;18929;48.008;10.882;2022-08-21T09:21:47;19.70;99.90
32476;DHT22;18929;48.008;10.882;2022-08-21T09:24:29;20.20;99.90
32476;DHT22;18929;48.008;10.882;2022-08-21T09:27:04;20.20;99.90
32476;DHT22;18929;48.008;10.882;2022-08-21T09:29:35;20.00;99.90
32476;DHT22;18929;48.008;10.882;2022-08-21T09:32:11;20.00;99.90
32476;DHT22;18929;48.008;10.882;2022-08-21T09:34:41;19.60;99.90
32476;DHT22;18929;48.008;10.882;2022-08-21T09:37:17;20.20;99.90
32476;DHT22;18929;48.008;10.882;2022-08-21T09:39:44;20.40;99.90
32476;DHT22;18929;48.008;10.882;2022-08-21T09:42:11;19.90;99.90
32476;DHT22;18929;48.008;10.882;2022-08-21T09:44:47;20.00;99.90
32476;DHT22;18929;48.008;10.882;2022-08-21T09:47:18;20.50;99.90
32476;DHT22;18929;48.008;10.882;2022-08-21T09:49:46;20.30;99.90
32476;DHT22;18929;48.008;10.882;2022-08-21T09:52:17;20.90;99.90
32476;DHT22;18929;48.008;10.882;2022-08-21T09:54:46;20.20;99.90
32476;DHT22;18929;48.008;10.882;2022-08-21T09:57:19;21.00;99.90
32476;DHT22;18929;48.008;10.882;2022-08-21T10:00:28;20.30;99.90
32476;DHT22;18929;48.008;10.882;2022-08-21T10:03:07;19.40;99.90
32476;DHT22;18929;48.008;10.882;2022-08-21T10:05:35;19.40;99.90
32476;DHT22;18929;48.008;10.882;2022-08-21T10:08:03;19.40;99.90
32476;DHT22;18929;48.008;10.882;2022-08-21T10:10:35;20.10;99.90
32476;DHT22;18929;48.008;10.882;2022-08-21T10:13:09;20.40;99.90
32476;DHT22;18929;48.008;10.882;2022-08-21T10:15:46;20.80;99.90
32476;DHT22;18929;48.008;10.882;2022-08-21T10:18:20;21.30;99.90
32476;DHT22;18929;48.008;10.882;2022-08-21T10:20:52;21.60;99.90
32476;DHT22;18929;48.008;10.882;2022-08-21T10:23:32;21.80;99.90
32476;DHT22;18929;48.008;10.882;2022-08-21T10:26:08;21.20;99.90
32476;DHT22;18929;48.008;10.882;2022-08-21T10:28:44;21.00;99.90
32476;DHT22;18929;48.008;10.882;2022-08-21T10:31:18;20.80;99.90
32476;DHT22;18929;48.008;10.882;2022-08-21T10:33:55;21.60;99.90
32476;DHT22;18929;48.008;10.882;2022-08-21T10:36:29;21.30;99.90
32476;DHT22;18929;48.008;10.882;2022-08-21T10:39:05;21.10;99.90
32476;DHT22;18929;48.008;10.882;2022-08-21T10:41:46;21.00;99.90
32476;DHT22;18929;48.008;10.882;2022-08-21T10:44:25;20.30;99.90
32476;DHT22;18929;48.008;10.882;2022-08-21T10:47:02;21.30;99.90
32476;DHT22;18929;48.008;10.882;2022-08-21T10:49:39;20.70;99.90
32476;DHT22;18929;48.008;10.882;2022-08-21T10:52:29;21.30;99.90
32476;DHT22;18929;48.008;10.882;2022-08-21T10:55:02;21.30;99.90
32476;DHT22;18929;48.008;10.882;2022-08-21T10:57:36;21.00;99.90
32476;DHT22;18929;48.008;10.882;2022-08-21T11:00:07;20.30;99.90
32476;DHT22;18929;48.008;10.882;2022-08-21T11:02:39;20.00;99.90
32476;DHT22;18929;48.008;10.882;2022-08-21T11:05:12;19.80;99.90
32476;DHT22;18929;48.008;10.882;2022-08-21T11:07:46;19.90;99.90
32476;DHT22;18929;48.008;10.882;2022-08-21T11:10:19;19.90;99.90
32476;DHT22;18929;48.008;10.882;2022-08-21T11:12:51;21.10;99.90
32476;DHT22;18929;48.008;10.882;2022-08-21T11:15:27;21.00;99.90
32476;DHT22;18929;48.008;10.882;2022-08-21T11:18:02;20.10;99.90
32476;DHT22;18929;48.008;10.882;2022-08-21T11:20:38;20.40;99.90
32476;DHT22;18929;48.008;10.882;2022-08-21T11:23:11;21.70;99.90
32476;DHT22;18929;48.008;10.882;2022-08-21T11:25:45;21.90;99.30
32476;DHT22;18929;48.008;10.882;2022-08-21T11:28:18;22.10;99.30
32476;DHT22;18929;48.008;10.882;2022-08-21T11:30:55;22.30;98.80
32476;DHT22;18929;48.008;10.882;2022-08-21T11:33:32;21.90;99.90
32476;DHT22;18929;48.008;10.882;2022-08-21T11:36:12;21.20;99.90
32476;DHT22;18929;48.008;10.882;2022-08-21T11:38:44;21.50;99.50
32476;DHT22;18929;48.008;10.882;2022-08-21T11:41:21;21.70;98.30
32476;DHT22;18929;48.008;10.882;2022-08-21T11:43:55;22.10;99.90
32476;DHT22;18929;48.008;10.882;2022-08-21T11:46:33;22.30;98.90
32476;DHT22;18929;48.008;10.882;2022-08-21T11:49:25;22.40;99.30
32476;DHT22;18929;48.008;10.882;2022-08-21T11:52:03;22.30;99.90
32476;DHT22;18929;48.008;10.882;2022-08-21T11:54:37;22.10;99.90
32476;DHT22;18929;48.008;10.882;2022-08-21T11:57:11;22.00;99.60
32476;DHT22;18929;48.008;10.882;2022-08-21T11:59:44;21.90;99.90
32476;DHT22;18929;48.008;10.882;2022-08-21T12:02:14;22.40;99.90
32476;DHT22;18929;48.008;10.882;2022-08-21T12:04:46;22.30;97.10
32476;DHT22;18929;48.008;10.882;2022-08-21T12:07:17;22.30;99.90
32476;DHT22;18929;48.008;10.882;2022-08-21T12:09:53;22.00;99.90
32476;DHT22;18929;48.008;10.882;2022-08-21T12:12:27;22.00;99.90
32476;DHT22;18929;48.008;10.882;2022-08-21T12:17:56;22.40;96.70
32476;DHT22;18929;48.008;10.882;2022-08-21T12:20:33;22.70;96.50
32476;DHT22;18929;48.008;10.882;2022-08-21T12:23:14;22.60;97.60
32476;DHT22;18929;48.008;10.882;2022-08-21T12:25:44;23.30;98.70
32476;DHT22;18929;48.008;10.882;2022-08-21T12:28:15;23.10;95.00
32476;DHT22;18929;48.008;10.882;2022-08-21T12:30:44;22.40;99.90
32476;DHT22;18929;48.008;10.882;2022-08-21T12:33:21;22.10;99.90
32476;DHT22;18929;48.008;10.882;2022-08-21T12:35:51;22.30;99.90
32476;DHT22;18929;48.008;10.882;2022-08-21T12:38:26;22.70;95.40
32476;DHT22;18929;48.008;10.882;2022-08-21T12:40:56;22.60;99.90
32476;DHT22;18929;48.008;10.882;2022-08-21T12:43:28;22.70;97.30
32476;DHT22;18929;48.008;10.882;2022-08-21T12:45:55;22.80;99.90
32476;DHT22;18929;48.008;10.882;2022-08-21T12:48:29;22.60;96.30
32476;DHT22;18929;48.008;10.882;2022-08-21T12:51:07;23.10;95.40
32476;DHT22;18929;48.008;10.882;2022-08-21T12:53:44;22.90;99.90
32476;DHT22;18929;48.008;10.882;2022-08-21T12:56:14;23.00;99.90
32476;DHT22;18929;48.008;10.882;2022-08-21T12:58:44;23.20;97.60
32476;DHT22;18929;48.008;10.882;2022-08-21T13:01:17;23.20;95.70
32476;DHT22;18929;48.008;10.882;2022-08-21T13:03:46;23.50;95.40
32476;DHT22;18929;48.008;10.882;2022-08-21T13:06:15;22.90;93.90
32476;DHT22;18929;48.008;10.882;2022-08-21T13:08:45;23.10;94.10
32476;DHT22;18929;48.008;10.882;2022-08-21T13:11:16;23.20;93.00
32476;DHT22;18929;48.008;10.882;2022-08-21T13:13:48;23.30;97.70
32476;DHT22;18929;48.008;10.882;2022-08-21T13:16:20;23.20;94.40
32476;DHT22;18929;48.008;10.882;2022-08-21T13:18:55;23.70;94.40
32476;DHT22;18929;48.008;10.882;2022-08-21T13:21:28;23.80;93.50
32476;DHT22;18929;48.008;10.882;2022-08-21T13:24:08;24.10;93.10
32476;DHT22;18929;48.008;10.882;2022-08-21T13:26:36;23.50;93.50
32476;DHT22;18929;48.008;10.882;2022-08-21T13:29:07;23.70;97.70
32476;DHT22;18929;48.008;10.882;2022-08-21T13:31:37;23.80;93.60
32476;DHT22;18929;48.008;10.882;2022-08-21T13:34:05;23.50;92.40
32476;DHT22;18929;48.008;10.882;2022-08-21T13:36:35;24.00;92.80
32476;DHT22;18929;48.008;10.882;2022-08-21T13:39:05;23.80;91.80
32476;DHT22;18929;48.008;10.882;2022-08-21T13:41:35;24.00;97.80
32476;DHT22;18929;48.008;10.882;2022-08-21T13:44:13;24.20;96.50
32476;DHT22;18929;48.008;10.882;2022-08-21T13:46:41;23.70;90.40
32476;DHT22;18929;48.008;10.882;2022-08-21T13:49:09;24.00;96.40
32476;DHT22;18929;48.008;10.882;2022-08-21T13:51:37;23.90;93.80
32476;DHT22;18929;48.008;10.882;2022-08-21T13:54:18;23.90;92.80
32476;DHT22;18929;48.008;10.882;2022-08-21T13:56:47;23.30;92.90
32476;DHT22;18929;48.008;10.882;2022-08-21T13:59:24;23.30;93.60
32476;DHT22;18929;48.008;10.882;2022-08-21T14:01:53;23.40;93.90
32476;DHT22;18929;48.008;10.882;2022-08-21T14:04:29;23.50;93.50
32476;DHT22;18929;48.008;10.882;2022-08-21T14:06:57;23.40;92.30
32476;DHT22;18929;48.008;10.882;2022-08-21T14:09:29;23.70;92.30
32476;DHT22;18929;48.008;10.882;2022-08-21T14:11:57;23.60;91.10
32476;DHT22;18929;48.008;10.882;2022-08-21T14:14:29;24.10;97.50
32476;DHT22;18929;48.008;10.882;2022-08-21T14:16:58;23.90;91.00
32476;DHT22;18929;48.008;10.882;2022-08-21T14:19:34;24.00;91.80
32476;DHT22;18929;48.008;10.882;2022-08-21T14:22:22;23.80;91.30
32476;DHT22;18929;48.008;10.882;2022-08-21T14:24:59;23.90;97.30
32476;DHT22;18929;48.008;10.882;2022-08-21T14:27:29;23.70;92.30
32476;DHT22;18929;48.008;10.882;2022-08-21T14:30:04;23.90;91.90
32476;DHT22;18929;48.008;10.882;2022-08-21T14:32:40;23.50;91.80
32476;DHT22;18929;48.008;10.882;2022-08-21T14:35:08;23.70;91.30
32476;DHT22;18929;48.008;10.882;2022-08-21T14:37:35;24.40;94.40
32476;DHT22;18929;48.008;10.882;2022-08-21T14:40:05;24.50;95.70
32476;DHT22;18929;48.008;10.882;2022-08-21T14:42:32;24.30;96.90
32476;DHT22;18929;48.008;10.882;2022-08-21T14:45:04;24.00;91.50
32476;DHT22;18929;48.008;10.882;2022-08-21T14:47:34;24.30;96.60
32476;DHT22;18929;48.008;10.882;2022-08-21T14:50:02;24.10;90.30
32476;DHT22;18929;48.008;10.882;2022-08-21T14:52:29;24.10;90.70
32476;DHT22;18929;48.008;10.882;2022-08-21T14:54:57;24.20;90.90
32476;DHT22;18929;48.008;10.882;2022-08-21T14:57:28;24.30;95.80
32476;DHT22;18929;48.008;10.882;2022-08-21T14:59:56;24.50;95.90
32476;DHT22;18929;48.008;10.882;2022-08-21T15:02:25;24.50;90.40
32476;DHT22;18929;48.008;10.882;2022-08-21T15:04:52;24.70;90.30
32476;DHT22;18929;48.008;10.882;2022-08-21T15:07:19;24.80;91.20
32476;DHT22;18929;48.008;10.882;2022-08-21T15:09:46;24.80;94.40
32476;DHT22;18929;48.008;10.882;2022-08-21T15:12:13;24.30;89.20
32476;DHT22;18929;48.008;10.882;2022-08-21T15:14:42;24.40;88.50
32476;DHT22;18929;48.008;10.882;2022-08-21T15:17:10;24.90;93.40
32476;DHT22;18929;48.008;10.882;2022-08-21T15:19:37;25.10;88.50
32476;DHT22;18929;48.008;10.882;2022-08-21T15:22:05;25.30;94.50
32476;DHT22;18929;48.008;10.882;2022-08-21T15:24:33;25.60;93.90
32476;DHT22;18929;48.008;10.882;2022-08-21T15:27:02;25.30;89.50
32476;DHT22;18929;48.008;10.882;2022-08-21T15:29:30;25.40;94.90
32476;DHT22;18929;48.008;10.882;2022-08-21T15:32:00;25.40;94.80
32476;DHT22;18929;48.008;10.882;2022-08-21T15:34:28;25.50;94.10